sensor_id;sensor_type;location;lat;lon;timestamp;P1;durP1;ratioP1;P2;durP2;ratioP2
41883;SDS011;27566;50.930;5.328;2024-01-27T00:00:22;22.00;;;6.85;;
41883;SDS011;27566;50.930;5.328;2024-01-27T00:02:48;21.17;;;7.03;;
41883;SDS011;27566;50.930;5.328;2024-01-27T00:05:21;16.33;;;6.03;;
41883;SDS011;27566;50.930;5.328;2024-01-27T00:07:55;22.13;;;7.80;;
41883;SDS011;27566;50.930;5.328;2024-01-27T00:10:21;16.58;;;7.60;;
41883;SDS011;27566;50.930;5.328;2024-01-27T00:12:47;15.32;;;6.07;;
41883;SDS011;27566;50.930;5.328;2024-01-27T00:15:13;12.15;;;5.85;;
41883;SDS011;27566;50.930;5.328;2024-01-27T00:17:39;17.95;;;7.25;;
41883;SDS011;27566;50.930;5.328;2024-01-27T00:20:06;14.60;;;6.38;;
41883;SDS011;27566;50.930;5.328;2024-01-27T00:22:32;19.25;;;7.15;;
41883;SDS011;27566;50.930;5.328;2024-01-27T00:24:58;15.80;;;6.15;;
41883;SDS011;27566;50.930;5.328;2024-01-27T00:27:24;15.32;;;5.10;;
41883;SDS011;27566;50.930;5.328;2024-01-27T00:29:49;12.25;;;5.13;;
41883;SDS011;27566;50.930;5.328;2024-01-27T00:32:15;21.95;;;6.97;;
41883;SDS011;27566;50.930;5.328;2024-01-27T00:34:49;17.15;;;5.55;;
41883;SDS011;27566;50.930;5.328;2024-01-27T00:37:15;18.80;;;5.82;;
41883;SDS011;27566;50.930;5.328;2024-01-27T00:39:41;20.23;;;5.82;;
41883;SDS011;27566;50.930;5.328;2024-01-27T00:42:07;15.07;;;5.72;;
41883;SDS011;27566;50.930;5.328;2024-01-27T00:44:33;14.88;;;6.65;;
41883;SDS011;27566;50.930;5.328;2024-01-27T00:46:59;16.58;;;6.03;;
41883;SDS011;27566;50.930;5.328;2024-01-27T00:49:25;19.67;;;5.68;;
41883;SDS011;27566;50.930;5.328;2024-01-27T00:51:51;18.40;;;6.35;;
41883;SDS011;27566;50.930;5.328;2024-01-27T00:54:17;13.75;;;4.45;;
41883;SDS011;27566;50.930;5.328;2024-01-27T00:56:43;14.70;;;5.28;;
41883;SDS011;27566;50.930;5.328;2024-01-27T00:59:09;14.38;;;5.05;;
41883;SDS011;27566;50.930;5.328;2024-01-27T01:01:35;11.88;;;5.55;;
41883;SDS011;27566;50.930;5.328;2024-01-27T01:04:01;19.42;;;4.45;;
41883;SDS011;27566;50.930;5.328;2024-01-27T01:06:26;15.75;;;5.75;;
41883;SDS011;27566;50.930;5.328;2024-01-27T01:08:52;11.68;;;5.10;;
41883;SDS011;27566;50.930;5.328;2024-01-27T01:11:18;10.30;;;5.03;;
41883;SDS011;27566;50.930;5.328;2024-01-27T01:13:44;16.75;;;5.55;;
41883;SDS011;27566;50.930;5.328;2024-01-27T01:16:10;14.50;;;4.95;;
41883;SDS011;27566;50.930;5.328;2024-01-27T01:18:36;12.98;;;4.60;;
41883;SDS011;27566;50.930;5.328;2024-01-27T01:21:02;10.60;;;4.15;;
41883;SDS011;27566;50.930;5.328;2024-01-27T01:23:29;14.40;;;5.88;;
41883;SDS011;27566;50.930;5.328;2024-01-27T01:25:55;11.27;;;4.50;;
41883;SDS011;27566;50.930;5.328;2024-01-27T01:28:21;11.02;;;5.00;;
41883;SDS011;27566;50.930;5.328;2024-01-27T01:30:47;17.80;;;6.07;;
41883;SDS011;27566;50.930;5.328;2024-01-27T01:33:14;13.60;;;5.50;;
41883;SDS011;27566;50.930;5.328;2024-01-27T01:35:41;14.85;;;4.40;;
41883;SDS011;27566;50.930;5.328;2024-01-27T01:38:07;14.93;;;4.55;;
41883;SDS011;27566;50.930;5.328;2024-01-27T01:40:33;20.02;;;6.30;;
41883;SDS011;27566;50.930;5.328;2024-01-27T01:42:59;12.57;;;4.55;;
41883;SDS011;27566;50.930;5.328;2024-01-27T01:45:25;14.57;;;6.55;;
41883;SDS011;27566;50.930;5.328;2024-01-27T01:47:51;16.65;;;6.25;;
41883;SDS011;27566;50.930;5.328;2024-01-27T01:50:17;16.85;;;5.72;;
41883;SDS011;27566;50.930;5.328;2024-01-27T01:52:43;17.08;;;5.13;;
41883;SDS011;27566;50.930;5.328;2024-01-27T01:55:10;22.25;;;6.50;;
41883;SDS011;27566;50.930;5.328;2024-01-27T01:57:36;12.43;;;5.35;;
41883;SDS011;27566;50.930;5.328;2024-01-27T02:00:02;17.42;;;7.35;;
41883;SDS011;27566;50.930;5.328;2024-01-27T02:02:28;15.52;;;5.25;;
41883;SDS011;27566;50.930;5.328;2024-01-27T02:04:54;16.38;;;5.65;;
41883;SDS011;27566;50.930;5.328;2024-01-27T02:07:20;16.38;;;5.07;;
41883;SDS011;27566;50.930;5.328;2024-01-27T02:09:46;12.80;;;6.80;;
41883;SDS011;27566;50.930;5.328;2024-01-27T02:12:13;16.35;;;5.22;;
41883;SDS011;27566;50.930;5.328;2024-01-27T02:14:39;14.70;;;6.40;;
41883;SDS011;27566;50.930;5.328;2024-01-27T02:17:05;18.60;;;6.10;;
41883;SDS011;27566;50.930;5.328;2024-01-27T02:19:31;19.95;;;7.13;;
41883;SDS011;27566;50.930;5.328;2024-01-27T02:21:57;18.73;;;5.63;;
41883;SDS011;27566;50.930;5.328;2024-01-27T02:24:23;20.15;;;5.97;;
41883;SDS011;27566;50.930;5.328;2024-01-27T02:26:49;19.10;;;8.18;;
41883;SDS011;27566;50.930;5.328;2024-01-27T02:29:15;19.55;;;5.90;;
41883;SDS011;27566;50.930;5.328;2024-01-27T02:31:41;17.40;;;6.22;;
41883;SDS011;27566;50.930;5.328;2024-01-27T02:34:07;21.30;;;5.97;;
41883;SDS011;27566;50.930;5.328;2024-01-27T02:36:34;14.70;;;6.30;;
41883;SDS011;27566;50.930;5.328;2024-01-27T02:39:00;14.85;;;5.90;;
41883;SDS011;27566;50.930;5.328;2024-01-27T02:41:26;17.23;;;7.38;;
41883;SDS011;27566;50.930;5.328;2024-01-27T02:43:52;18.65;;;5.45;;
41883;SDS011;27566;50.930;5.328;2024-01-27T02:46:18;19.27;;;6.10;;
41883;SDS011;27566;50.930;5.328;2024-01-27T02:48:44;16.48;;;5.05;;
41883;SDS011;27566;50.930;5.328;2024-01-27T02:51:11;11.80;;;6.07;;
41883;SDS011;27566;50.930;5.328;2024-01-27T02:53:37;18.42;;;5.13;;
41883;SDS011;27566;50.930;5.328;2024-01-27T02:56:06;12.88;;;5.07;;
41883;SDS011;27566;50.930;5.328;2024-01-27T02:58:33;14.70;;;6.05;;
41883;SDS011;27566;50.930;5.328;2024-01-27T03:00:59;26.80;;;6.07;;
41883;SDS011;27566;50.930;5.328;2024-01-27T03:03:25;17.00;;;5.85;;
41883;SDS011;27566;50.930;5.328;2024-01-27T03:05:51;20.67;;;6.88;;
41883;SDS011;27566;50.930;5.328;2024-01-27T03:08:18;11.40;;;5.22;;
41883;SDS011;27566;50.930;5.328;2024-01-27T03:10:44;18.77;;;6.80;;
41883;SDS011;27566;50.930;5.328;2024-01-27T03:13:10;20.30;;;5.75;;
41883;SDS011;27566;50.930;5.328;2024-01-27T03:15:36;18.77;;;6.35;;
41883;SDS011;27566;50.930;5.328;2024-01-27T03:18:02;17.98;;;5.50;;
41883;SDS011;27566;50.930;5.328;2024-01-27T03:20:29;15.95;;;5.50;;
41883;SDS011;27566;50.930;5.328;2024-01-27T03:22:56;20.08;;;8.75;;
41883;SDS011;27566;50.930;5.328;2024-01-27T03:25:22;14.50;;;5.75;;
41883;SDS011;27566;50.930;5.328;2024-01-27T03:27:50;13.68;;;6.70;;
41883;SDS011;27566;50.930;5.328;2024-01-27T03:30:16;16.55;;;5.78;;
41883;SDS011;27566;50.930;5.328;2024-01-27T03:32:42;19.17;;;5.65;;
41883;SDS011;27566;50.930;5.328;2024-01-27T03:35:08;18.48;;;7.13;;
41883;SDS011;27566;50.930;5.328;2024-01-27T03:37:34;17.30;;;6.13;;
41883;SDS011;27566;50.930;5.328;2024-01-27T03:40:01;19.90;;;6.85;;
41883;SDS011;27566;50.930;5.328;2024-01-27T03:42:27;16.52;;;5.88;;
41883;SDS011;27566;50.930;5.328;2024-01-27T03:44:53;18.38;;;6.20;;
41883;SDS011;27566;50.930;5.328;2024-01-27T03:47:19;22.67;;;8.02;;
41883;SDS011;27566;50.930;5.328;2024-01-27T03:49:45;22.00;;;6.45;;
41883;SDS011;27566;50.930;5.328;2024-01-27T03:52:11;23.38;;;7.25;;
41883;SDS011;27566;50.930;5.328;2024-01-27T03:54:38;19.70;;;5.93;;
41883;SDS011;27566;50.930;5.328;2024-01-27T03:57:04;15.32;;;5.78;;
41883;SDS011;27566;50.930;5.328;2024-01-27T03:59:30;16.67;;;6.28;;
41883;SDS011;27566;50.930;5.328;2024-01-27T04:01:56;20.05;;;6.28;;
41883;SDS011;27566;50.930;5.328;2024-01-27T04:04:22;21.00;;;8.43;;
41883;SDS011;27566;50.930;5.328;2024-01-27T04:06:49;16.98;;;6.60;;
41883;SDS011;27566;50.930;5.328;2024-01-27T04:09:15;20.58;;;7.78;;
41883;SDS011;27566;50.930;5.328;2024-01-27T04:11:41;25.85;;;9.18;;
41883;SDS011;27566;50.930;5.328;2024-01-27T04:14:08;15.57;;;7.65;;
41883;SDS011;27566;50.930;5.328;2024-01-27T04:16:34;19.20;;;6.90;;
41883;SDS011;27566;50.930;5.328;2024-01-27T04:19:00;21.92;;;7.53;;
41883;SDS011;27566;50.930;5.328;2024-01-27T04:21:26;21.00;;;6.45;;
41883;SDS011;27566;50.930;5.328;2024-01-27T04:23:52;16.63;;;7.18;;
41883;SDS011;27566;50.930;5.328;2024-01-27T04:26:18;15.20;;;6.15;;
41883;SDS011;27566;50.930;5.328;2024-01-27T04:28:44;17.77;;;7.45;;
41883;SDS011;27566;50.930;5.328;2024-01-27T04:31:10;22.38;;;7.35;;
41883;SDS011;27566;50.930;5.328;2024-01-27T04:33:37;22.85;;;6.50;;
41883;SDS011;27566;50.930;5.328;2024-01-27T04:36:03;16.15;;;7.43;;
41883;SDS011;27566;50.930;5.328;2024-01-27T04:38:31;17.70;;;6.72;;
41883;SDS011;27566;50.930;5.328;2024-01-27T04:40:57;22.85;;;6.95;;
41883;SDS011;27566;50.930;5.328;2024-01-27T04:43:23;16.65;;;7.15;;
41883;SDS011;27566;50.930;5.328;2024-01-27T04:45:50;20.60;;;7.15;;
41883;SDS011;27566;50.930;5.328;2024-01-27T04:48:16;18.00;;;7.82;;
41883;SDS011;27566;50.930;5.328;2024-01-27T04:50:42;13.73;;;5.72;;
41883;SDS011;27566;50.930;5.328;2024-01-27T04:53:08;18.08;;;7.57;;
41883;SDS011;27566;50.930;5.328;2024-01-27T04:55:34;26.35;;;6.63;;
41883;SDS011;27566;50.930;5.328;2024-01-27T04:58:01;20.10;;;8.25;;
41883;SDS011;27566;50.930;5.328;2024-01-27T05:00:27;21.90;;;8.48;;
41883;SDS011;27566;50.930;5.328;2024-01-27T05:02:53;21.48;;;8.20;;
41883;SDS011;27566;50.930;5.328;2024-01-27T05:05:20;15.82;;;6.78;;
41883;SDS011;27566;50.930;5.328;2024-01-27T05:07:46;18.88;;;7.05;;
41883;SDS011;27566;50.930;5.328;2024-01-27T05:10:14;20.33;;;7.05;;
41883;SDS011;27566;50.930;5.328;2024-01-27T05:12:40;16.38;;;7.85;;
41883;SDS011;27566;50.930;5.328;2024-01-27T05:15:06;17.13;;;8.38;;
41883;SDS011;27566;50.930;5.328;2024-01-27T05:17:33;16.25;;;6.22;;
41883;SDS011;27566;50.930;5.328;2024-01-27T05:19:59;19.25;;;8.52;;
41883;SDS011;27566;50.930;5.328;2024-01-27T05:22:29;27.45;;;8.50;;
41883;SDS011;27566;50.930;5.328;2024-01-27T05:24:55;23.42;;;8.02;;
41883;SDS011;27566;50.930;5.328;2024-01-27T05:27:21;17.08;;;7.50;;
41883;SDS011;27566;50.930;5.328;2024-01-27T05:29:47;21.42;;;7.10;;
41883;SDS011;27566;50.930;5.328;2024-01-27T05:32:13;19.50;;;7.95;;
41883;SDS011;27566;50.930;5.328;2024-01-27T05:34:39;13.38;;;7.43;;
41883;SDS011;27566;50.930;5.328;2024-01-27T05:37:05;19.00;;;8.15;;
41883;SDS011;27566;50.930;5.328;2024-01-27T05:39:31;19.60;;;7.70;;
41883;SDS011;27566;50.930;5.328;2024-01-27T05:41:59;16.02;;;7.47;;
41883;SDS011;27566;50.930;5.328;2024-01-27T05:44:25;24.40;;;7.65;;
41883;SDS011;27566;50.930;5.328;2024-01-27T05:46:51;19.33;;;7.28;;
41883;SDS011;27566;50.930;5.328;2024-01-27T05:49:17;32.13;;;7.03;;
41883;SDS011;27566;50.930;5.328;2024-01-27T05:51:42;16.58;;;8.25;;
41883;SDS011;27566;50.930;5.328;2024-01-27T05:54:08;21.15;;;9.35;;
41883;SDS011;27566;50.930;5.328;2024-01-27T05:56:35;18.20;;;7.70;;
41883;SDS011;27566;50.930;5.328;2024-01-27T05:59:01;19.63;;;6.82;;
41883;SDS011;27566;50.930;5.328;2024-01-27T06:01:28;19.75;;;7.13;;
41883;SDS011;27566;50.930;5.328;2024-01-27T06:03:54;19.25;;;7.22;;
41883;SDS011;27566;50.930;5.328;2024-01-27T06:06:20;22.60;;;8.93;;
41883;SDS011;27566;50.930;5.328;2024-01-27T06:08:46;22.90;;;7.18;;
41883;SDS011;27566;50.930;5.328;2024-01-27T06:11:12;16.20;;;7.57;;
41883;SDS011;27566;50.930;5.328;2024-01-27T06:13:38;20.67;;;7.38;;
41883;SDS011;27566;50.930;5.328;2024-01-27T06:16:06;18.83;;;7.72;;
41883;SDS011;27566;50.930;5.328;2024-01-27T06:18:34;17.15;;;7.82;;
41883;SDS011;27566;50.930;5.328;2024-01-27T06:21:01;30.77;;;12.85;;
41883;SDS011;27566;50.930;5.328;2024-01-27T06:23:27;28.70;;;14.82;;
41883;SDS011;27566;50.930;5.328;2024-01-27T06:25:53;25.45;;;9.88;;
41883;SDS011;27566;50.930;5.328;2024-01-27T06:28:19;17.40;;;7.35;;
41883;SDS011;27566;50.930;5.328;2024-01-27T06:30:45;18.42;;;8.57;;
41883;SDS011;27566;50.930;5.328;2024-01-27T06:33:11;23.15;;;9.68;;
41883;SDS011;27566;50.930;5.328;2024-01-27T06:35:37;21.50;;;8.80;;
41883;SDS011;27566;50.930;5.328;2024-01-27T06:38:03;19.73;;;8.45;;
41883;SDS011;27566;50.930;5.328;2024-01-27T06:40:30;20.80;;;9.88;;
41883;SDS011;27566;50.930;5.328;2024-01-27T06:42:56;18.15;;;9.38;;
41883;SDS011;27566;50.930;5.328;2024-01-27T06:45:22;38.60;;;18.98;;
41883;SDS011;27566;50.930;5.328;2024-01-27T06:47:48;21.35;;;11.13;;
41883;SDS011;27566;50.930;5.328;2024-01-27T06:50:14;19.00;;;7.03;;
41883;SDS011;27566;50.930;5.328;2024-01-27T06:52:40;20.35;;;9.05;;
41883;SDS011;27566;50.930;5.328;2024-01-27T06:55:06;19.73;;;7.20;;
41883;SDS011;27566;50.930;5.328;2024-01-27T06:57:35;19.73;;;7.35;;
41883;SDS011;27566;50.930;5.328;2024-01-27T07:00:01;18.42;;;7.95;;
41883;SDS011;27566;50.930;5.328;2024-01-27T07:02:28;18.20;;;8.77;;
41883;SDS011;27566;50.930;5.328;2024-01-27T07:04:54;20.42;;;7.03;;
41883;SDS011;27566;50.930;5.328;2024-01-27T07:07:29;19.10;;;6.82;;
41883;SDS011;27566;50.930;5.328;2024-01-27T07:09:55;23.70;;;6.53;;
41883;SDS011;27566;50.930;5.328;2024-01-27T07:12:22;20.35;;;6.88;;
41883;SDS011;27566;50.930;5.328;2024-01-27T07:14:48;26.27;;;8.13;;
41883;SDS011;27566;50.930;5.328;2024-01-27T07:17:14;16.65;;;6.63;;
41883;SDS011;27566;50.930;5.328;2024-01-27T07:19:40;19.38;;;7.35;;
41883;SDS011;27566;50.930;5.328;2024-01-27T07:22:06;21.88;;;7.93;;
41883;SDS011;27566;50.930;5.328;2024-01-27T07:24:33;17.67;;;6.40;;
41883;SDS011;27566;50.930;5.328;2024-01-27T07:27:02;11.88;;;6.47;;
41883;SDS011;27566;50.930;5.328;2024-01-27T07:29:29;21.83;;;7.35;;
41883;SDS011;27566;50.930;5.328;2024-01-27T07:31:55;16.10;;;7.57;;
41883;SDS011;27566;50.930;5.328;2024-01-27T07:34:21;15.80;;;5.40;;
41883;SDS011;27566;50.930;5.328;2024-01-27T07:36:47;19.33;;;7.75;;
41883;SDS011;27566;50.930;5.328;2024-01-27T07:39:14;19.55;;;6.18;;
41883;SDS011;27566;50.930;5.328;2024-01-27T07:41:40;16.55;;;7.15;;
41883;SDS011;27566;50.930;5.328;2024-01-27T07:44:14;22.35;;;6.60;;
41883;SDS011;27566;50.930;5.328;2024-01-27T07:46:42;15.80;;;7.18;;
41883;SDS011;27566;50.930;5.328;2024-01-27T07:49:08;16.33;;;7.15;;
41883;SDS011;27566;50.930;5.328;2024-01-27T07:51:37;22.20;;;7.15;;
41883;SDS011;27566;50.930;5.328;2024-01-27T07:54:04;18.92;;;7.75;;
41883;SDS011;27566;50.930;5.328;2024-01-27T07:56:30;24.52;;;7.38;;
41883;SDS011;27566;50.930;5.328;2024-01-27T07:58:56;17.00;;;7.68;;
41883;SDS011;27566;50.930;5.328;2024-01-27T08:01:22;15.27;;;6.20;;
41883;SDS011;27566;50.930;5.328;2024-01-27T08:03:48;19.13;;;6.40;;
41883;SDS011;27566;50.930;5.328;2024-01-27T08:06:28;16.02;;;7.00;;
41883;SDS011;27566;50.930;5.328;2024-01-27T08:08:55;17.13;;;6.88;;
41883;SDS011;27566;50.930;5.328;2024-01-27T08:11:21;17.52;;;6.90;;
41883;SDS011;27566;50.930;5.328;2024-01-27T08:13:47;19.80;;;5.43;;
41883;SDS011;27566;50.930;5.328;2024-01-27T08:16:13;15.27;;;6.30;;
41883;SDS011;27566;50.930;5.328;2024-01-27T08:18:40;19.23;;;6.22;;
41883;SDS011;27566;50.930;5.328;2024-01-27T08:21:07;18.95;;;6.45;;
41883;SDS011;27566;50.930;5.328;2024-01-27T08:23:33;16.77;;;6.40;;
41883;SDS011;27566;50.930;5.328;2024-01-27T08:26:00;15.48;;;7.32;;
41883;SDS011;27566;50.930;5.328;2024-01-27T08:28:26;22.55;;;7.22;;
41883;SDS011;27566;50.930;5.328;2024-01-27T08:30:52;15.35;;;6.25;;
41883;SDS011;27566;50.930;5.328;2024-01-27T08:33:18;24.33;;;8.07;;
41883;SDS011;27566;50.930;5.328;2024-01-27T08:35:45;14.65;;;7.22;;
41883;SDS011;27566;50.930;5.328;2024-01-27T08:38:12;17.58;;;6.22;;
41883;SDS011;27566;50.930;5.328;2024-01-27T08:40:38;13.40;;;6.45;;
41883;SDS011;27566;50.930;5.328;2024-01-27T08:43:04;13.68;;;6.20;;
41883;SDS011;27566;50.930;5.328;2024-01-27T08:45:31;13.10;;;5.75;;
41883;SDS011;27566;50.930;5.328;2024-01-27T08:47:57;14.52;;;5.60;;
41883;SDS011;27566;50.930;5.328;2024-01-27T08:50:23;21.45;;;5.50;;
41883;SDS011;27566;50.930;5.328;2024-01-27T08:52:49;16.48;;;5.57;;
41883;SDS011;27566;50.930;5.328;2024-01-27T08:55:15;17.98;;;6.07;;
41883;SDS011;27566;50.930;5.328;2024-01-27T08:57:51;15.98;;;5.25;;
41883;SDS011;27566;50.930;5.328;2024-01-27T09:00:17;19.55;;;7.68;;
41883;SDS011;27566;50.930;5.328;2024-01-27T09:02:43;13.60;;;5.95;;
41883;SDS011;27566;50.930;5.328;2024-01-27T09:05:09;18.73;;;7.07;;
41883;SDS011;27566;50.930;5.328;2024-01-27T09:07:35;11.98;;;6.47;;
41883;SDS011;27566;50.930;5.328;2024-01-27T09:10:02;11.73;;;4.50;;
41883;SDS011;27566;50.930;5.328;2024-01-27T09:12:28;15.07;;;5.70;;
41883;SDS011;27566;50.930;5.328;2024-01-27T09:14:55;17.70;;;5.78;;
41883;SDS011;27566;50.930;5.328;2024-01-27T09:17:21;13.55;;;5.20;;
41883;SDS011;27566;50.930;5.328;2024-01-27T09:19:47;14.02;;;5.65;;
41883;SDS011;27566;50.930;5.328;2024-01-27T09:22:13;12.93;;;5.45;;
41883;SDS011;27566;50.930;5.328;2024-01-27T09:24:39;12.70;;;5.97;;
41883;SDS011;27566;50.930;5.328;2024-01-27T09:27:05;13.48;;;5.72;;
41883;SDS011;27566;50.930;5.328;2024-01-27T09:29:31;12.95;;;5.03;;
41883;SDS011;27566;50.930;5.328;2024-01-27T09:31:57;13.50;;;6.18;;
41883;SDS011;27566;50.930;5.328;2024-01-27T09:34:23;15.27;;;6.28;;
41883;SDS011;27566;50.930;5.328;2024-01-27T09:36:49;14.35;;;5.97;;
41883;SDS011;27566;50.930;5.328;2024-01-27T09:39:15;9.27;;;5.32;;
41883;SDS011;27566;50.930;5.328;2024-01-27T09:41:41;13.88;;;7.10;;
41883;SDS011;27566;50.930;5.328;2024-01-27T09:44:14;17.70;;;6.30;;
41883;SDS011;27566;50.930;5.328;2024-01-27T09:46:43;11.48;;;5.43;;
41883;SDS011;27566;50.930;5.328;2024-01-27T09:49:13;12.68;;;5.25;;
41883;SDS011;27566;50.930;5.328;2024-01-27T09:51:43;17.33;;;5.03;;
41883;SDS011;27566;50.930;5.328;2024-01-27T09:54:09;18.05;;;5.00;;
41883;SDS011;27566;50.930;5.328;2024-01-27T09:56:34;11.57;;;4.57;;
41883;SDS011;27566;50.930;5.328;2024-01-27T09:59:00;12.35;;;4.35;;
41883;SDS011;27566;50.930;5.328;2024-01-27T10:01:27;19.75;;;5.97;;
41883;SDS011;27566;50.930;5.328;2024-01-27T10:03:54;20.17;;;6.13;;
41883;SDS011;27566;50.930;5.328;2024-01-27T10:06:20;12.90;;;4.63;;
41883;SDS011;27566;50.930;5.328;2024-01-27T10:08:56;21.55;;;5.00;;
41883;SDS011;27566;50.930;5.328;2024-01-27T10:11:23;13.40;;;4.28;;
41883;SDS011;27566;50.930;5.328;2024-01-27T10:13:55;10.98;;;4.25;;
41883;SDS011;27566;50.930;5.328;2024-01-27T10:16:23;17.50;;;5.45;;
41883;SDS011;27566;50.930;5.328;2024-01-27T10:18:58;14.50;;;6.22;;
41883;SDS011;27566;50.930;5.328;2024-01-27T10:21:26;14.73;;;4.32;;
41883;SDS011;27566;50.930;5.328;2024-01-27T10:23:52;11.35;;;4.50;;
41883;SDS011;27566;50.930;5.328;2024-01-27T10:26:18;14.68;;;5.00;;
41883;SDS011;27566;50.930;5.328;2024-01-27T10:28:57;14.15;;;4.55;;
41883;SDS011;27566;50.930;5.328;2024-01-27T10:31:26;10.68;;;4.35;;
41883;SDS011;27566;50.930;5.328;2024-01-27T10:33:53;9.50;;;3.53;;
41883;SDS011;27566;50.930;5.328;2024-01-27T10:36:21;10.07;;;3.38;;
41883;SDS011;27566;50.930;5.328;2024-01-27T10:38:48;14.57;;;4.35;;
41883;SDS011;27566;50.930;5.328;2024-01-27T10:41:17;10.00;;;3.83;;
41883;SDS011;27566;50.930;5.328;2024-01-27T10:43:51;11.38;;;3.60;;
41883;SDS011;27566;50.930;5.328;2024-01-27T10:46:18;15.93;;;3.97;;
41883;SDS011;27566;50.930;5.328;2024-01-27T10:48:51;12.60;;;4.07;;
41883;SDS011;27566;50.930;5.328;2024-01-27T10:51:30;14.00;;;4.15;;
41883;SDS011;27566;50.930;5.328;2024-01-27T10:54:02;10.82;;;3.95;;
41883;SDS011;27566;50.930;5.328;2024-01-27T10:56:31;13.48;;;3.97;;
41883;SDS011;27566;50.930;5.328;2024-01-27T10:59:01;13.68;;;3.97;;
41883;SDS011;27566;50.930;5.328;2024-01-27T11:01:29;12.98;;;4.43;;
41883;SDS011;27566;50.930;5.328;2024-01-27T11:03:57;9.82;;;3.42;;
41883;SDS011;27566;50.930;5.328;2024-01-27T11:06:24;12.15;;;4.75;;
41883;SDS011;27566;50.930;5.328;2024-01-27T11:08:52;7.72;;;4.53;;
41883;SDS011;27566;50.930;5.328;2024-01-27T11:11:19;11.43;;;3.25;;
41883;SDS011;27566;50.930;5.328;2024-01-27T11:13:45;10.18;;;3.92;;
41883;SDS011;27566;50.930;5.328;2024-01-27T11:16:16;7.03;;;2.83;;
41883;SDS011;27566;50.930;5.328;2024-01-27T11:18:43;15.73;;;4.15;;
41883;SDS011;27566;50.930;5.328;2024-01-27T11:21:16;11.88;;;3.85;;
41883;SDS011;27566;50.930;5.328;2024-01-27T11:23:42;11.27;;;3.75;;
41883;SDS011;27566;50.930;5.328;2024-01-27T11:26:10;9.52;;;4.47;;
41883;SDS011;27566;50.930;5.328;2024-01-27T11:28:39;10.48;;;3.45;;
41883;SDS011;27566;50.930;5.328;2024-01-27T11:31:06;10.32;;;3.50;;
41883;SDS011;27566;50.930;5.328;2024-01-27T11:33:42;8.55;;;3.17;;
41883;SDS011;27566;50.930;5.328;2024-01-27T11:36:14;9.50;;;2.58;;
41883;SDS011;27566;50.930;5.328;2024-01-27T11:38:45;10.25;;;2.65;;
41883;SDS011;27566;50.930;5.328;2024-01-27T11:41:11;10.48;;;4.25;;
41883;SDS011;27566;50.930;5.328;2024-01-27T11:43:37;6.85;;;2.28;;
41883;SDS011;27566;50.930;5.328;2024-01-27T11:46:05;10.45;;;2.95;;
41883;SDS011;27566;50.930;5.328;2024-01-27T11:48:30;7.97;;;2.80;;
41883;SDS011;27566;50.930;5.328;2024-01-27T11:51:12;7.03;;;2.35;;
41883;SDS011;27566;50.930;5.328;2024-01-27T11:53:38;17.50;;;5.88;;
41883;SDS011;27566;50.930;5.328;2024-01-27T11:56:04;8.15;;;3.30;;
41883;SDS011;27566;50.930;5.328;2024-01-27T11:58:30;9.95;;;2.83;;
41883;SDS011;27566;50.930;5.328;2024-01-27T12:00:57;8.38;;;2.30;;
41883;SDS011;27566;50.930;5.328;2024-01-27T12:03:26;7.22;;;2.40;;
41883;SDS011;27566;50.930;5.328;2024-01-27T12:05:52;8.88;;;2.35;;
41883;SDS011;27566;50.930;5.328;2024-01-27T12:08:18;8.02;;;2.53;;
41883;SDS011;27566;50.930;5.328;2024-01-27T12:10:44;11.55;;;2.78;;
41883;SDS011;27566;50.930;5.328;2024-01-27T12:13:10;5.50;;;2.10;;
41883;SDS011;27566;50.930;5.328;2024-01-27T12:15:36;16.83;;;3.83;;
41883;SDS011;27566;50.930;5.328;2024-01-27T12:18:04;7.28;;;2.58;;
41883;SDS011;27566;50.930;5.328;2024-01-27T12:20:30;13.88;;;2.90;;
41883;SDS011;27566;50.930;5.328;2024-01-27T12:23:05;14.73;;;2.40;;
41883;SDS011;27566;50.930;5.328;2024-01-27T12:25:31;12.05;;;3.65;;
41883;SDS011;27566;50.930;5.328;2024-01-27T12:28:01;8.55;;;2.97;;
41883;SDS011;27566;50.930;5.328;2024-01-27T12:30:28;7.65;;;2.38;;
41883;SDS011;27566;50.930;5.328;2024-01-27T12:32:54;7.50;;;2.55;;
41883;SDS011;27566;50.930;5.328;2024-01-27T12:35:20;13.73;;;3.72;;
41883;SDS011;27566;50.930;5.328;2024-01-27T12:37:46;11.00;;;4.00;;
41883;SDS011;27566;50.930;5.328;2024-01-27T12:40:22;8.50;;;2.60;;
41883;SDS011;27566;50.930;5.328;2024-01-27T12:42:48;5.95;;;2.15;;
41883;SDS011;27566;50.930;5.328;2024-01-27T12:45:15;8.05;;;3.67;;
41883;SDS011;27566;50.930;5.328;2024-01-27T12:47:41;10.88;;;3.03;;
41883;SDS011;27566;50.930;5.328;2024-01-27T12:50:07;6.93;;;2.92;;
41883;SDS011;27566;50.930;5.328;2024-01-27T12:52:33;7.03;;;3.10;;
41883;SDS011;27566;50.930;5.328;2024-01-27T12:54:59;9.68;;;3.15;;
41883;SDS011;27566;50.930;5.328;2024-01-27T12:57:25;11.27;;;2.72;;
41883;SDS011;27566;50.930;5.328;2024-01-27T12:59:52;9.18;;;2.97;;
41883;SDS011;27566;50.930;5.328;2024-01-27T13:02:17;6.85;;;2.20;;
41883;SDS011;27566;50.930;5.328;2024-01-27T13:04:45;7.65;;;2.40;;
41883;SDS011;27566;50.930;5.328;2024-01-27T13:07:11;8.70;;;2.88;;
41883;SDS011;27566;50.930;5.328;2024-01-27T13:09:39;7.05;;;2.75;;
41883;SDS011;27566;50.930;5.328;2024-01-27T13:12:05;10.52;;;2.88;;
41883;SDS011;27566;50.930;5.328;2024-01-27T13:14:31;10.20;;;2.90;;
41883;SDS011;27566;50.930;5.328;2024-01-27T13:16:57;7.88;;;3.55;;
41883;SDS011;27566;50.930;5.328;2024-01-27T13:19:24;6.43;;;2.83;;
41883;SDS011;27566;50.930;5.328;2024-01-27T13:21:51;8.15;;;2.30;;
41883;SDS011;27566;50.930;5.328;2024-01-27T13:24:17;9.45;;;3.00;;
41883;SDS011;27566;50.930;5.328;2024-01-27T13:26:45;7.18;;;2.38;;
41883;SDS011;27566;50.930;5.328;2024-01-27T13:29:11;9.63;;;2.95;;
41883;SDS011;27566;50.930;5.328;2024-01-27T13:31:37;13.68;;;4.22;;
41883;SDS011;27566;50.930;5.328;2024-01-27T13:34:04;7.53;;;3.30;;
41883;SDS011;27566;50.930;5.328;2024-01-27T13:36:30;9.20;;;2.72;;
41883;SDS011;27566;50.930;5.328;2024-01-27T13:38:56;10.80;;;3.25;;
41883;SDS011;27566;50.930;5.328;2024-01-27T13:41:23;11.73;;;4.60;;
41883;SDS011;27566;50.930;5.328;2024-01-27T13:43:49;9.95;;;4.15;;
41883;SDS011;27566;50.930;5.328;2024-01-27T13:46:15;8.73;;;3.33;;
41883;SDS011;27566;50.930;5.328;2024-01-27T13:48:41;10.32;;;3.35;;
41883;SDS011;27566;50.930;5.328;2024-01-27T13:51:07;7.68;;;2.95;;
41883;SDS011;27566;50.930;5.328;2024-01-27T13:53:33;12.13;;;2.67;;
41883;SDS011;27566;50.930;5.328;2024-01-27T13:55:59;6.70;;;2.95;;
41883;SDS011;27566;50.930;5.328;2024-01-27T13:58:26;15.13;;;2.30;;
41883;SDS011;27566;50.930;5.328;2024-01-27T14:00:52;13.00;;;4.43;;
41883;SDS011;27566;50.930;5.328;2024-01-27T14:03:18;6.75;;;2.42;;
41883;SDS011;27566;50.930;5.328;2024-01-27T14:05:53;9.40;;;2.90;;
41883;SDS011;27566;50.930;5.328;2024-01-27T14:08:19;6.70;;;2.30;;
41883;SDS011;27566;50.930;5.328;2024-01-27T14:10:45;7.60;;;2.95;;
41883;SDS011;27566;50.930;5.328;2024-01-27T14:13:13;13.02;;;4.35;;
41883;SDS011;27566;50.930;5.328;2024-01-27T14:15:39;6.97;;;2.83;;
41883;SDS011;27566;50.930;5.328;2024-01-27T14:18:04;6.82;;;3.08;;
41883;SDS011;27566;50.930;5.328;2024-01-27T14:20:31;11.10;;;3.85;;
41883;SDS011;27566;50.930;5.328;2024-01-27T14:23:02;8.95;;;2.55;;
41883;SDS011;27566;50.930;5.328;2024-01-27T14:25:28;8.82;;;2.53;;
41883;SDS011;27566;50.930;5.328;2024-01-27T14:27:54;9.77;;;3.25;;
41883;SDS011;27566;50.930;5.328;2024-01-27T14:30:20;11.18;;;4.10;;
41883;SDS011;27566;50.930;5.328;2024-01-27T14:32:46;8.90;;;2.78;;